sensor_id;sensor_type;location;lat;lon;timestamp;temperature;humidity
40059;SHT31;25763;49.972;8.568;2023-06-04T00:01:04;15.58;47.85
40059;SHT31;25763;49.972;8.568;2023-06-04T00:03:30;15.62;47.86
40059;SHT31;25763;49.972;8.568;2023-06-04T00:05:55;15.58;47.70
40059;SHT31;25763;49.972;8.568;2023-06-04T00:08:21;15.56;48.09
40059;SHT31;25763;49.972;8.568;2023-06-04T00:10:47;15.45;48.33
40059;SHT31;25763;49.972;8.568;2023-06-04T00:13:12;15.32;48.82
40059;SHT31;25763;49.972;8.568;2023-06-04T00:15:38;15.39;49.44
40059;SHT31;25763;49.972;8.568;2023-06-04T00:18:03;15.34;50.28
40059;SHT31;25763;49.972;8.568;2023-06-04T00:20:28;15.22;50.43
40059;SHT31;25763;49.972;8.568;2023-06-04T00:22:54;15.12;51.05
40059;SHT31;25763;49.972;8.568;2023-06-04T00:25:19;15.02;50.82
40059;SHT31;25763;49.972;8.568;2023-06-04T00:27:45;14.92;52.12
40059;SHT31;25763;49.972;8.568;2023-06-04T00:30:10;14.85;51.97
40059;SHT31;25763;49.972;8.568;2023-06-04T00:32:36;14.82;52.31
40059;SHT31;25763;49.972;8.568;2023-06-04T00:35:02;14.75;51.91
40059;SHT31;25763;49.972;8.568;2023-06-04T00:37:28;14.75;51.56
40059;SHT31;25763;49.972;8.568;2023-06-04T00:39:54;14.79;51.62
40059;SHT31;25763;49.972;8.568;2023-06-04T00:42:19;14.73;51.49
40059;SHT31;25763;49.972;8.568;2023-06-04T00:44:45;14.65;51.49
40059;SHT31;25763;49.972;8.568;2023-06-04T00:47:18;14.55;51.89
40059;SHT31;25763;49.972;8.568;2023-06-04T00:49:45;14.52;51.84
40059;SHT31;25763;49.972;8.568;2023-06-04T00:52:12;14.47;51.74
40059;SHT31;25763;49.972;8.568;2023-06-04T00:54:39;14.41;52.05
40059;SHT31;25763;49.972;8.568;2023-06-04T00:57:05;14.37;52.41
40059;SHT31;25763;49.972;8.568;2023-06-04T00:59:32;14.34;52.14
40059;SHT31;25763;49.972;8.568;2023-06-04T01:02:04;14.31;52.18
40059;SHT31;25763;49.972;8.568;2023-06-04T01:04:46;14.28;52.37
40059;SHT31;25763;49.972;8.568;2023-06-04T01:07:15;14.30;52.54
40059;SHT31;25763;49.972;8.568;2023-06-04T01:09:41;14.27;52.09
40059;SHT31;25763;49.972;8.568;2023-06-04T01:12:10;14.28;52.38
40059;SHT31;25763;49.972;8.568;2023-06-04T01:14:35;14.30;52.20
40059;SHT31;25763;49.972;8.568;2023-06-04T01:17:20;14.33;52.13
40059;SHT31;25763;49.972;8.568;2023-06-04T01:25:20;14.20;52.34
40059;SHT31;25763;49.972;8.568;2023-06-04T01:27:51;14.23;52.48
40059;SHT31;25763;49.972;8.568;2023-06-04T01:30:21;14.20;52.82
40059;SHT31;25763;49.972;8.568;2023-06-04T01:32:48;14.21;52.82
40059;SHT31;25763;49.972;8.568;2023-06-04T01:35:13;14.14;52.76
40059;SHT31;25763;49.972;8.568;2023-06-04T01:37:39;14.14;52.61
40059;SHT31;25763;49.972;8.568;2023-06-04T01:40:05;14.16;52.65
40059;SHT31;25763;49.972;8.568;2023-06-04T01:42:30;14.17;52.52
40059;SHT31;25763;49.972;8.568;2023-06-04T01:44:56;14.06;52.76
40059;SHT31;25763;49.972;8.568;2023-06-04T01:47:21;14.14;53.15
40059;SHT31;25763;49.972;8.568;2023-06-04T01:49:47;14.09;52.70
40059;SHT31;25763;49.972;8.568;2023-06-04T01:52:12;14.20;52.90
40059;SHT31;25763;49.972;8.568;2023-06-04T01:54:37;14.09;52.93
40059;SHT31;25763;49.972;8.568;2023-06-04T01:57:04;14.10;52.99
40059;SHT31;25763;49.972;8.568;2023-06-04T01:59:30;14.09;53.34
40059;SHT31;25763;49.972;8.568;2023-06-04T02:01:57;14.03;53.37
40059;SHT31;25763;49.972;8.568;2023-06-04T02:04:22;14.08;53.41
40059;SHT31;25763;49.972;8.568;2023-06-04T02:06:49;14.08;53.87
40059;SHT31;25763;49.972;8.568;2023-06-04T02:09:15;13.99;53.62
40059;SHT31;25763;49.972;8.568;2023-06-04T02:11:40;13.92;54.44
40059;SHT31;25763;49.972;8.568;2023-06-04T02:14:05;13.96;54.28
40059;SHT31;25763;49.972;8.568;2023-06-04T02:16:30;13.89;54.74
40059;SHT31;25763;49.972;8.568;2023-06-04T02:18:57;13.86;54.99
40059;SHT31;25763;49.972;8.568;2023-06-04T02:21:24;13.83;55.28
40059;SHT31;25763;49.972;8.568;2023-06-04T02:23:49;13.82;55.17
40059;SHT31;25763;49.972;8.568;2023-06-04T02:26:14;13.86;54.66
40059;SHT31;25763;49.972;8.568;2023-06-04T02:28:40;13.89;54.46
40059;SHT31;25763;49.972;8.568;2023-06-04T02:31:05;13.86;55.18
40059;SHT31;25763;49.972;8.568;2023-06-04T02:33:31;13.88;55.65
40059;SHT31;25763;49.972;8.568;2023-06-04T02:35:56;13.77;54.76
40059;SHT31;25763;49.972;8.568;2023-06-04T02:38:22;13.70;55.17
40059;SHT31;25763;49.972;8.568;2023-06-04T02:40:47;13.67;55.44
40059;SHT31;25763;49.972;8.568;2023-06-04T02:43:13;13.61;55.25
40059;SHT31;25763;49.972;8.568;2023-06-04T02:45:38;13.54;55.14
40059;SHT31;25763;49.972;8.568;2023-06-04T02:48:03;13.44;55.88
40059;SHT31;25763;49.972;8.568;2023-06-04T02:50:29;13.41;55.69
40059;SHT31;25763;49.972;8.568;2023-06-04T02:52:54;13.34;56.13
40059;SHT31;25763;49.972;8.568;2023-06-04T02:55:20;13.36;55.90
40059;SHT31;25763;49.972;8.568;2023-06-04T02:57:45;13.32;55.92
40059;SHT31;25763;49.972;8.568;2023-06-04T03:00:12;13.18;55.92
40059;SHT31;25763;49.972;8.568;2023-06-04T03:02:42;13.16;56.20
40059;SHT31;25763;49.972;8.568;2023-06-04T03:05:09;13.18;55.86
40059;SHT31;25763;49.972;8.568;2023-06-04T03:07:41;13.19;55.74
40059;SHT31;25763;49.972;8.568;2023-06-04T03:10:09;13.09;56.26
40059;SHT31;25763;49.972;8.568;2023-06-04T03:12:35;13.15;56.30
40059;SHT31;25763;49.972;8.568;2023-06-04T03:15:00;13.09;56.06
40059;SHT31;25763;49.972;8.568;2023-06-04T03:17:26;12.99;56.32
40059;SHT31;25763;49.972;8.568;2023-06-04T03:19:51;12.95;56.60
40059;SHT31;25763;49.972;8.568;2023-06-04T03:22:17;12.95;56.70
40059;SHT31;25763;49.972;8.568;2023-06-04T03:24:42;12.94;56.62
40059;SHT31;25763;49.972;8.568;2023-06-04T03:27:09;12.94;56.55
40059;SHT31;25763;49.972;8.568;2023-06-04T03:29:35;13.01;56.55
40059;SHT31;25763;49.972;8.568;2023-06-04T03:32:01;13.02;56.49
40059;SHT31;25763;49.972;8.568;2023-06-04T03:34:27;12.94;56.43
40059;SHT31;25763;49.972;8.568;2023-06-04T03:36:53;12.99;57.00
40059;SHT31;25763;49.972;8.568;2023-06-04T03:39:19;13.01;56.91
40059;SHT31;25763;49.972;8.568;2023-06-04T03:41:44;13.04;56.91
40059;SHT31;25763;49.972;8.568;2023-06-04T03:44:12;13.02;56.93
40059;SHT31;25763;49.972;8.568;2023-06-04T03:46:39;12.99;56.97
40059;SHT31;25763;49.972;8.568;2023-06-04T03:49:04;13.12;57.07
40059;SHT31;25763;49.972;8.568;2023-06-04T03:51:30;13.05;57.07
40059;SHT31;25763;49.972;8.568;2023-06-04T03:53:57;13.05;56.84
40059;SHT31;25763;49.972;8.568;2023-06-04T03:56:23;12.95;57.16
40059;SHT31;25763;49.972;8.568;2023-06-04T03:58:48;13.05;57.17
40059;SHT31;25763;49.972;8.568;2023-06-04T04:01:14;12.97;57.06
40059;SHT31;25763;49.972;8.568;2023-06-04T04:03:39;12.97;57.39
40059;SHT31;25763;49.972;8.568;2023-06-04T04:06:05;13.02;57.13
40059;SHT31;25763;49.972;8.568;2023-06-04T04:08:30;12.99;56.85
40059;SHT31;25763;49.972;8.568;2023-06-04T04:11:00;13.05;57.15
40059;SHT31;25763;49.972;8.568;2023-06-04T04:13:25;13.04;57.14
40059;SHT31;25763;49.972;8.568;2023-06-04T04:15:51;13.01;57.74
40059;SHT31;25763;49.972;8.568;2023-06-04T04:18:18;12.98;57.11
40059;SHT31;25763;49.972;8.568;2023-06-04T04:20:45;13.09;57.41
40059;SHT31;25763;49.972;8.568;2023-06-04T04:23:11;13.18;57.57
40059;SHT31;25763;49.972;8.568;2023-06-04T04:25:37;13.18;57.17
40059;SHT31;25763;49.972;8.568;2023-06-04T04:28:04;13.19;57.09
40059;SHT31;25763;49.972;8.568;2023-06-04T04:30:32;13.18;57.28
40059;SHT31;25763;49.972;8.568;2023-06-04T04:33:00;13.22;57.28
40059;SHT31;25763;49.972;8.568;2023-06-04T04:35:25;13.23;57.28
40059;SHT31;25763;49.972;8.568;2023-06-04T04:37:51;13.32;57.58
40059;SHT31;25763;49.972;8.568;2023-06-04T04:40:16;13.39;56.76
40059;SHT31;25763;49.972;8.568;2023-06-04T04:42:42;13.43;56.70
40059;SHT31;25763;49.972;8.568;2023-06-04T04:45:08;13.44;56.60
40059;SHT31;25763;49.972;8.568;2023-06-04T04:47:33;13.54;56.82
40059;SHT31;25763;49.972;8.568;2023-06-04T04:49:58;13.54;56.50
40059;SHT31;25763;49.972;8.568;2023-06-04T04:52:24;13.59;56.37
40059;SHT31;25763;49.972;8.568;2023-06-04T04:54:49;13.73;56.69
40059;SHT31;25763;49.972;8.568;2023-06-04T04:57:15;13.68;56.11
40059;SHT31;25763;49.972;8.568;2023-06-04T04:59:40;13.73;56.35
40059;SHT31;25763;49.972;8.568;2023-06-04T05:02:05;13.79;56.03
40059;SHT31;25763;49.972;8.568;2023-06-04T05:04:31;13.85;55.96
40059;SHT31;25763;49.972;8.568;2023-06-04T05:06:56;14.03;56.33
40059;SHT31;25763;49.972;8.568;2023-06-04T05:09:21;14.09;55.84
40059;SHT31;25763;49.972;8.568;2023-06-04T05:11:47;14.12;55.41
40059;SHT31;25763;49.972;8.568;2023-06-04T05:14:12;14.08;55.08
40059;SHT31;25763;49.972;8.568;2023-06-04T05:16:37;14.20;55.10
40059;SHT31;25763;49.972;8.568;2023-06-04T05:19:03;14.40;55.58
40059;SHT31;25763;49.972;8.568;2023-06-04T05:21:29;14.38;54.15
40059;SHT31;25763;49.972;8.568;2023-06-04T05:23:54;14.37;54.23
40059;SHT31;25763;49.972;8.568;2023-06-04T05:26:20;14.51;54.17
40059;SHT31;25763;49.972;8.568;2023-06-04T05:28:53;14.76;54.27
40059;SHT31;25763;49.972;8.568;2023-06-04T05:31:18;14.97;53.42
40059;SHT31;25763;49.972;8.568;2023-06-04T05:33:44;15.00;53.63
40059;SHT31;25763;49.972;8.568;2023-06-04T05:36:09;14.89;53.13
40059;SHT31;25763;49.972;8.568;2023-06-04T05:38:35;15.03;53.87
40059;SHT31;25763;49.972;8.568;2023-06-04T05:41:01;14.94;52.92
40059;SHT31;25763;49.972;8.568;2023-06-04T05:43:27;15.02;53.39
40059;SHT31;25763;49.972;8.568;2023-06-04T05:45:52;15.22;52.31
40059;SHT31;25763;49.972;8.568;2023-06-04T05:48:18;15.44;52.06
40059;SHT31;25763;49.972;8.568;2023-06-04T05:50:43;15.53;52.11
40059;SHT31;25763;49.972;8.568;2023-06-04T05:53:09;15.74;52.56
40059;SHT31;25763;49.972;8.568;2023-06-04T05:55:34;15.88;51.67
40059;SHT31;25763;49.972;8.568;2023-06-04T05:58:00;15.81;51.31
40059;SHT31;25763;49.972;8.568;2023-06-04T06:00:25;15.83;51.12
40059;SHT31;25763;49.972;8.568;2023-06-04T06:02:51;15.90;50.55
40059;SHT31;25763;49.972;8.568;2023-06-04T06:05:18;16.11;50.40
40059;SHT31;25763;49.972;8.568;2023-06-04T06:07:44;16.17;49.76
40059;SHT31;25763;49.972;8.568;2023-06-04T06:10:10;16.24;49.62
40059;SHT31;25763;49.972;8.568;2023-06-04T06:12:35;16.30;49.28
40059;SHT31;25763;49.972;8.568;2023-06-04T06:15:01;16.55;50.81
40059;SHT31;25763;49.972;8.568;2023-06-04T06:17:28;16.60;48.67
40059;SHT31;25763;49.972;8.568;2023-06-04T06:19:54;16.77;48.12
40059;SHT31;25763;49.972;8.568;2023-06-04T06:22:20;16.65;47.43
40059;SHT31;25763;49.972;8.568;2023-06-04T06:24:45;16.61;48.30
40059;SHT31;25763;49.972;8.568;2023-06-04T06:27:13;16.59;47.34
40059;SHT31;25763;49.972;8.568;2023-06-04T06:29:39;16.80;47.36
40059;SHT31;25763;49.972;8.568;2023-06-04T06:32:06;16.81;47.15
40059;SHT31;25763;49.972;8.568;2023-06-04T06:34:31;16.94;46.50
40059;SHT31;25763;49.972;8.568;2023-06-04T06:36:56;16.95;47.34
40059;SHT31;25763;49.972;8.568;2023-06-04T06:39:22;17.14;46.82
40059;SHT31;25763;49.972;8.568;2023-06-04T06:41:48;17.26;46.81
40059;SHT31;25763;49.972;8.568;2023-06-04T06:44:13;17.47;46.55
40059;SHT31;25763;49.972;8.568;2023-06-04T06:46:38;17.68;46.11
40059;SHT31;25763;49.972;8.568;2023-06-04T06:49:04;17.93;46.46
40059;SHT31;25763;49.972;8.568;2023-06-04T06:51:29;18.16;44.93
40059;SHT31;25763;49.972;8.568;2023-06-04T06:53:55;17.86;44.77
40059;SHT31;25763;49.972;8.568;2023-06-04T06:56:20;18.20;45.61
40059;SHT31;25763;49.972;8.568;2023-06-04T06:58:46;18.50;45.46
40059;SHT31;25763;49.972;8.568;2023-06-04T07:01:12;18.23;43.64
40059;SHT31;25763;49.972;8.568;2023-06-04T07:03:37;18.03;43.62
40059;SHT31;25763;49.972;8.568;2023-06-04T07:06:05;18.38;43.85
40059;SHT31;25763;49.972;8.568;2023-06-04T07:08:31;18.40;43.20
40059;SHT31;25763;49.972;8.568;2023-06-04T07:10:56;18.62;42.97
40059;SHT31;25763;49.972;8.568;2023-06-04T07:13:22;18.87;42.91
40059;SHT31;25763;49.972;8.568;2023-06-04T07:15:47;18.64;41.89
40059;SHT31;25763;49.972;8.568;2023-06-04T07:18:12;18.79;42.29
40059;SHT31;25763;49.972;8.568;2023-06-04T07:20:38;18.54;42.41
40059;SHT31;25763;49.972;8.568;2023-06-04T07:23:03;18.89;42.78
40059;SHT31;25763;49.972;8.568;2023-06-04T07:25:29;18.90;41.84
40059;SHT31;25763;49.972;8.568;2023-06-04T07:27:54;18.96;43.14
40059;SHT31;25763;49.972;8.568;2023-06-04T07:30:23;18.79;42.08
40059;SHT31;25763;49.972;8.568;2023-06-04T07:32:49;18.93;41.24
40059;SHT31;25763;49.972;8.568;2023-06-04T07:35:15;19.07;43.15
40059;SHT31;25763;49.972;8.568;2023-06-04T07:37:40;19.51;43.51
40059;SHT31;25763;49.972;8.568;2023-06-04T07:40:06;19.31;41.43
40059;SHT31;25763;49.972;8.568;2023-06-04T07:42:32;19.63;43.17
40059;SHT31;25763;49.972;8.568;2023-06-04T07:44:58;19.90;41.43
40059;SHT31;25763;49.972;8.568;2023-06-04T07:47:24;19.80;42.11
40059;SHT31;25763;49.972;8.568;2023-06-04T07:49:49;19.72;41.29
40059;SHT31;25763;49.972;8.568;2023-06-04T07:52:15;19.97;42.92
40059;SHT31;25763;49.972;8.568;2023-06-04T07:54:40;19.65;41.46
40059;SHT31;25763;49.972;8.568;2023-06-04T07:57:07;19.97;41.21
40059;SHT31;25763;49.972;8.568;2023-06-04T07:59:32;19.96;41.49
40059;SHT31;25763;49.972;8.568;2023-06-04T08:01:57;20.14;41.86
40059;SHT31;25763;49.972;8.568;2023-06-04T08:04:23;20.42;41.32
40059;SHT31;25763;49.972;8.568;2023-06-04T08:06:48;20.15;40.89
40059;SHT31;25763;49.972;8.568;2023-06-04T08:09:15;19.94;41.28
40059;SHT31;25763;49.972;8.568;2023-06-04T08:11:41;19.88;41.96
40059;SHT31;25763;49.972;8.568;2023-06-04T08:14:08;20.33;43.64
40059;SHT31;25763;49.972;8.568;2023-06-04T08:16:33;20.45;40.33
40059;SHT31;25763;49.972;8.568;2023-06-04T08:18:59;20.28;40.60
40059;SHT31;25763;49.972;8.568;2023-06-04T08:21:28;20.17;41.88
40059;SHT31;25763;49.972;8.568;2023-06-04T08:23:54;20.38;41.31
40059;SHT31;25763;49.972;8.568;2023-06-04T08:26:20;20.35;40.93
40059;SHT31;25763;49.972;8.568;2023-06-04T08:28:49;20.21;41.80
40059;SHT31;25763;49.972;8.568;2023-06-04T08:31:14;20.67;41.90
40059;SHT31;25763;49.972;8.568;2023-06-04T08:33:40;20.98;41.25
40059;SHT31;25763;49.972;8.568;2023-06-04T08:36:06;21.01;40.91
40059;SHT31;25763;49.972;8.568;2023-06-04T08:38:32;20.91;40.01
40059;SHT31;25763;49.972;8.568;2023-06-04T08:41:44;20.94;40.56
40059;SHT31;25763;49.972;8.568;2023-06-04T08:43:53;20.57;40.80
40059;SHT31;25763;49.972;8.568;2023-06-04T08:46:21;20.98;40.57
40059;SHT31;25763;49.972;8.568;2023-06-04T08:48:47;21.29;40.99
40059;SHT31;25763;49.972;8.568;2023-06-04T08:51:14;21.43;38.28
40059;SHT31;25763;49.972;8.568;2023-06-04T08:53:42;21.04;39.25
40059;SHT31;25763;49.972;8.568;2023-06-04T08:56:07;21.32;40.04
40059;SHT31;25763;49.972;8.568;2023-06-04T08:58:39;21.85;39.19
40059;SHT31;25763;49.972;8.568;2023-06-04T09:01:05;22.12;40.56
40059;SHT31;25763;49.972;8.568;2023-06-04T09:03:31;22.16;37.75
40059;SHT31;25763;49.972;8.568;2023-06-04T09:05:58;22.32;37.21
40059;SHT31;25763;49.972;8.568;2023-06-04T09:08:24;22.16;37.55
40059;SHT31;25763;49.972;8.568;2023-06-04T09:10:53;22.05;38.11
40059;SHT31;25763;49.972;8.568;2023-06-04T09:13:22;22.30;37.93
40059;SHT31;25763;49.972;8.568;2023-06-04T09:15:58;22.37;37.84
40059;SHT31;25763;49.972;8.568;2023-06-04T09:18:26;22.75;36.66
40059;SHT31;25763;49.972;8.568;2023-06-04T09:21:05;22.63;36.58
40059;SHT31;25763;49.972;8.568;2023-06-04T09:23:51;22.75;37.38
40059;SHT31;25763;49.972;8.568;2023-06-04T09:26:16;22.96;37.63
40059;SHT31;25763;49.972;8.568;2023-06-04T09:28:43;22.65;38.16
40059;SHT31;25763;49.972;8.568;2023-06-04T09:31:17;22.78;37.21
40059;SHT31;25763;49.972;8.568;2023-06-04T09:36:09;23.41;37.04
40059;SHT31;25763;49.972;8.568;2023-06-04T09:38:35;23.47;36.07
40059;SHT31;25763;49.972;8.568;2023-06-04T09:41:01;23.04;35.96
40059;SHT31;25763;49.972;8.568;2023-06-04T09:43:30;23.10;35.66
40059;SHT31;25763;49.972;8.568;2023-06-04T09:45:55;23.20;36.55
40059;SHT31;25763;49.972;8.568;2023-06-04T09:48:22;22.79;36.32
40059;SHT31;25763;49.972;8.568;2023-06-04T09:50:47;23.07;36.80
40059;SHT31;25763;49.972;8.568;2023-06-04T09:53:20;23.31;35.98
40059;SHT31;25763;49.972;8.568;2023-06-04T09:56:00;23.75;37.09
40059;SHT31;25763;49.972;8.568;2023-06-04T09:58:27;23.93;33.62
40059;SHT31;25763;49.972;8.568;2023-06-04T10:00:54;23.63;34.50
40059;SHT31;25763;49.972;8.568;2023-06-04T10:03:26;23.75;35.59
40059;SHT31;25763;49.972;8.568;2023-06-04T10:05:59;23.45;34.75
40059;SHT31;25763;49.972;8.568;2023-06-04T10:08:26;23.72;35.59
40059;SHT31;25763;49.972;8.568;2023-06-04T10:10:55;24.42;36.32
40059;SHT31;25763;49.972;8.568;2023-06-04T10:13:23;23.92;34.45
40059;SHT31;25763;49.972;8.568;2023-06-04T10:15:50;23.85;31.91
40059;SHT31;25763;49.972;8.568;2023-06-04T10:18:16;23.50;32.97
40059;SHT31;25763;49.972;8.568;2023-06-04T10:20:41;23.71;33.16
40059;SHT31;25763;49.972;8.568;2023-06-04T10:23:07;23.52;31.93
40059;SHT31;25763;49.972;8.568;2023-06-04T10:25:36;23.40;32.95
40059;SHT31;25763;49.972;8.568;2023-06-04T10:28:02;23.90;32.76
40059;SHT31;25763;49.972;8.568;2023-06-04T10:30:29;24.31;31.18
40059;SHT31;25763;49.972;8.568;2023-06-04T10:32:56;24.35;31.47
40059;SHT31;25763;49.972;8.568;2023-06-04T10:35:33;24.40;31.43
40059;SHT31;25763;49.972;8.568;2023-06-04T10:38:12;24.29;30.19
40059;SHT31;25763;49.972;8.568;2023-06-04T10:40:42;24.25;30.72
40059;SHT31;25763;49.972;8.568;2023-06-04T10:43:12;24.61;31.87
40059;SHT31;25763;49.972;8.568;2023-06-04T10:45:38;24.86;30.95
40059;SHT31;25763;49.972;8.568;2023-06-04T10:48:09;25.04;32.14
40059;SHT31;25763;49.972;8.568;2023-06-04T10:50:47;25.04;30.03
40059;SHT31;25763;49.972;8.568;2023-06-04T10:53:12;25.35;30.51
40059;SHT31;25763;49.972;8.568;2023-06-04T10:55:45;24.91;31.28
40059;SHT31;25763;49.972;8.568;2023-06-04T10:58:11;25.02;31.05
40059;SHT31;25763;49.972;8.568;2023-06-04T11:00:42;25.55;35.33
40059;SHT31;25763;49.972;8.568;2023-06-04T11:03:09;25.77;29.88
40059;SHT31;25763;49.972;8.568;2023-06-04T11:05:42;25.27;30.09
40059;SHT31;25763;49.972;8.568;2023-06-04T11:08:08;24.91;30.60
40059;SHT31;25763;49.972;8.568;2023-06-04T11:10:44;25.71;31.32
40059;SHT31;25763;49.972;8.568;2023-06-04T11:13:09;25.36;29.76
40059;SHT31;25763;49.972;8.568;2023-06-04T11:15:42;25.65;31.36
40059;SHT31;25763;49.972;8.568;2023-06-04T11:18:13;26.08;31.42
40059;SHT31;25763;49.972;8.568;2023-06-04T11:20:38;26.05;30.02
40059;SHT31;25763;49.972;8.568;2023-06-04T11:23:04;26.71;33.13
40059;SHT31;25763;49.972;8.568;2023-06-04T11:25:31;26.21;30.90
40059;SHT31;25763;49.972;8.568;2023-06-04T11:27:58;26.63;29.79
40059;SHT31;25763;49.972;8.568;2023-06-04T11:30:25;26.67;31.20
40059;SHT31;25763;49.972;8.568;2023-06-04T11:32:59;26.43;29.80
40059;SHT31;25763;49.972;8.568;2023-06-04T11:35:25;25.88;29.45
40059;SHT31;25763;49.972;8.568;2023-06-04T11:37:54;26.05;30.61
40059;SHT31;25763;49.972;8.568;2023-06-04T11:40:20;25.61;26.65
40059;SHT31;25763;49.972;8.568;2023-06-04T11:42:47;26.01;28.39
40059;SHT31;25763;49.972;8.568;2023-06-04T11:45:14;26.00;27.51
40059;SHT31;25763;49.972;8.568;2023-06-04T11:47:44;26.11;27.32
40059;SHT31;25763;49.972;8.568;2023-06-04T11:50:10;25.62;27.85
40059;SHT31;25763;49.972;8.568;2023-06-04T11:52:36;25.86;27.96
40059;SHT31;25763;49.972;8.568;2023-06-04T11:55:02;26.21;28.33
40059;SHT31;25763;49.972;8.568;2023-06-04T11:57:27;26.65;28.67
40059;SHT31;25763;49.972;8.568;2023-06-04T11:59:53;27.08;28.52
40059;SHT31;25763;49.972;8.568;2023-06-04T12:02:19;27.73;28.90
40059;SHT31;25763;49.972;8.568;2023-06-04T12:04:45;27.20;26.21
40059;SHT31;25763;49.972;8.568;2023-06-04T12:07:10;27.16;26.35
40059;SHT31;25763;49.972;8.568;2023-06-04T12:09:36;26.53;26.50
40059;SHT31;25763;49.972;8.568;2023-06-04T12:12:06;26.60;26.78
40059;SHT31;25763;49.972;8.568;2023-06-04T12:14:32;26.54;26.63
40059;SHT31;25763;49.972;8.568;2023-06-04T12:16:59;26.64;26.19
40059;SHT31;25763;49.972;8.568;2023-06-04T12:19:25;26.05;26.88
40059;SHT31;25763;49.972;8.568;2023-06-04T12:22:06;26.47;26.36
40059;SHT31;25763;49.972;8.568;2023-06-04T12:24:33;26.04;27.63
40059;SHT31;25763;49.972;8.568;2023-06-04T12:27:07;26.57;27.39
40059;SHT31;25763;49.972;8.568;2023-06-04T12:29:33;27.06;28.97
40059;SHT31;25763;49.972;8.568;2023-06-04T12:32:06;26.63;28.83
40059;SHT31;25763;49.972;8.568;2023-06-04T12:34:37;26.74;27.62
40059;SHT31;25763;49.972;8.568;2023-06-04T12:37:03;26.54;26.41
40059;SHT31;25763;49.972;8.568;2023-06-04T12:39:34;26.64;26.67
40059;SHT31;25763;49.972;8.568;2023-06-04T12:42:02;26.31;26.32
40059;SHT31;25763;49.972;8.568;2023-06-04T12:44:27;26.57;26.95
40059;SHT31;25763;49.972;8.568;2023-06-04T12:46:53;27.01;26.98
40059;SHT31;25763;49.972;8.568;2023-06-04T12:49:19;27.12;24.91
40059;SHT31;25763;49.972;8.568;2023-06-04T12:51:44;26.77;25.62
40059;SHT31;25763;49.972;8.568;2023-06-04T12:54:10;27.18;25.37
40059;SHT31;25763;49.972;8.568;2023-06-04T12:56:36;27.33;26.49
40059;SHT31;25763;49.972;8.568;2023-06-04T12:59:01;26.83;25.37
40059;SHT31;25763;49.972;8.568;2023-06-04T13:01:27;26.43;25.64
40059;SHT31;25763;49.972;8.568;2023-06-04T13:03:53;27.18;28.00
40059;SHT31;25763;49.972;8.568;2023-06-04T13:06:18;27.50;26.15
40059;SHT31;25763;49.972;8.568;2023-06-04T13:08:43;27.86;26.18
40059;SHT31;25763;49.972;8.568;2023-06-04T13:11:09;28.08;26.71
40059;SHT31;25763;49.972;8.568;2023-06-04T13:13:35;28.45;25.86
40059;SHT31;25763;49.972;8.568;2023-06-04T13:16:00;28.72;26.05
40059;SHT31;25763;49.972;8.568;2023-06-04T13:18:26;28.02;24.54
40059;SHT31;25763;49.972;8.568;2023-06-04T13:20:51;27.32;25.12
40059;SHT31;25763;49.972;8.568;2023-06-04T13:23:17;26.42;25.31
40059;SHT31;25763;49.972;8.568;2023-06-04T13:25:42;26.22;25.70
40059;SHT31;25763;49.972;8.568;2023-06-04T13:28:08;25.73;26.54
40059;SHT31;25763;49.972;8.568;2023-06-04T13:30:36;25.73;26.36
40059;SHT31;25763;49.972;8.568;2023-06-04T13:33:05;25.55;26.24
40059;SHT31;25763;49.972;8.568;2023-06-04T13:35:31;25.84;25.53
40059;SHT31;25763;49.972;8.568;2023-06-04T13:37:56;25.86;26.30
40059;SHT31;25763;49.972;8.568;2023-06-04T13:40:22;26.15;27.10
40059;SHT31;25763;49.972;8.568;2023-06-04T13:42:47;26.46;26.43
40059;SHT31;25763;49.972;8.568;2023-06-04T13:45:13;26.49;26.48
40059;SHT31;25763;49.972;8.568;2023-06-04T13:47:38;26.40;26.66
40059;SHT31;25763;49.972;8.568;2023-06-04T13:50:04;25.91;28.08
40059;SHT31;25763;49.972;8.568;2023-06-04T13:52:30;26.01;27.22
40059;SHT31;25763;49.972;8.568;2023-06-04T13:54:56;26.46;27.30
40059;SHT31;25763;49.972;8.568;2023-06-04T13:57:21;26.80;27.20
40059;SHT31;25763;49.972;8.568;2023-06-04T13:59:49;27.09;26.92
40059;SHT31;25763;49.972;8.568;2023-06-04T14:02:14;27.19;25.70
40059;SHT31;25763;49.972;8.568;2023-06-04T14:04:40;26.95;26.01
40059;SHT31;25763;49.972;8.568;2023-06-04T14:07:05;27.39;27.20
40059;SHT31;25763;49.972;8.568;2023-06-04T14:09:31;27.47;25.62
40059;SHT31;25763;49.972;8.568;2023-06-04T14:11:56;26.77;25.55
40059;SHT31;25763;49.972;8.568;2023-06-04T14:14:22;27.33;27.55
40059;SHT31;25763;49.972;8.568;2023-06-04T14:16:47;27.78;25.89
40059;SHT31;25763;49.972;8.568;2023-06-04T14:19:13;27.16;25.58
40059;SHT31;25763;49.972;8.568;2023-06-04T14:21:43;28.05;27.16
40059;SHT31;25763;49.972;8.568;2023-06-04T14:24:09;27.01;25.19
40059;SHT31;25763;49.972;8.568;2023-06-04T14:26:35;26.46;25.62
40059;SHT31;25763;49.972;8.568;2023-06-04T14:29:00;26.54;25.33
40059;SHT31;25763;49.972;8.568;2023-06-04T14:31:26;26.43;26.68
40059;SHT31;25763;49.972;8.568;2023-06-04T14:33:52;26.38;26.31
40059;SHT31;25763;49.972;8.568;2023-06-04T14:36:17;26.84;26.52
40059;SHT31;25763;49.972;8.568;2023-06-04T14:38:43;27.51;27.34
40059;SHT31;25763;49.972;8.568;2023-06-04T14:41:10;28.02;27.02
40059;SHT31;25763;49.972;8.568;2023-06-04T14:43:35;27.51;24.67
40059;SHT31;25763;49.972;8.568;2023-06-04T14:46:00;27.11;24.76
40059;SHT31;25763;49.972;8.568;2023-06-04T14:48:26;26.86;25.34
40059;SHT31;25763;49.972;8.568;2023-06-04T14:50:51;27.40;26.76
40059;SHT31;25763;49.972;8.568;2023-06-04T14:53:21;27.73;25.48
40059;SHT31;25763;49.972;8.568;2023-06-04T14:55:46;28.32;25.76
40059;SHT31;25763;49.972;8.568;2023-06-04T14:58:12;28.04;25.46
40059;SHT31;25763;49.972;8.568;2023-06-04T15:00:37;28.32;26.31
40059;SHT31;25763;49.972;8.568;2023-06-04T15:03:03;28.36;24.18
40059;SHT31;25763;49.972;8.568;2023-06-04T15:05:28;28.41;25.47
40059;SHT31;25763;49.972;8.568;2023-06-04T15:07:53;27.68;25.21
40059;SHT31;25763;49.972;8.568;2023-06-04T15:10:19;27.06;26.60
40059;SHT31;25763;49.972;8.568;2023-06-04T15:12:44;27.05;26.31
40059;SHT31;25763;49.972;8.568;2023-06-04T15:15:10;26.59;27.49
40059;SHT31;25763;49.972;8.568;2023-06-04T15:17:36;26.33;27.09
40059;SHT31;25763;49.972;8.568;2023-06-04T15:20:04;26.32;26.74
40059;SHT31;25763;49.972;8.568;2023-06-04T15:22:30;26.83;26.49
40059;SHT31;25763;49.972;8.568;2023-06-04T15:24:56;27.57;28.09
40059;SHT31;25763;49.972;8.568;2023-06-04T15:27:21;27.56;26.11
40059;SHT31;25763;49.972;8.568;2023-06-04T15:29:47;27.61;26.44
40059;SHT31;25763;49.972;8.568;2023-06-04T15:32:12;27.56;27.58
40059;SHT31;25763;49.972;8.568;2023-06-04T15:34:38;27.56;25.04